createdAt,value
2024-02-24T00:01:53.773Z,91.42
2024-02-24T00:04:21.633Z,91.51
2024-02-24T00:06:49.406Z,91.84
2024-02-24T00:09:17.447Z,92.00
2024-02-24T00:11:45.320Z,92.42
2024-02-24T00:14:14.589Z,92.71
2024-02-24T00:16:42.422Z,92.99
2024-02-24T00:19:10.132Z,93.38
2024-02-24T00:21:38.071Z,93.52
2024-02-24T00:24:06.383Z,93.87
2024-02-24T00:26:34.066Z,94.10
2024-02-24T00:29:01.915Z,94.20
2024-02-24T00:31:30.922Z,94.22
2024-02-24T00:33:58.709Z,94.57
2024-02-24T00:36:26.411Z,94.74
2024-02-24T00:38:54.286Z,94.89
2024-02-24T00:41:21.964Z,94.98
2024-02-24T00:43:49.681Z,95.34
2024-02-24T00:46:17.274Z,95.24
2024-02-24T00:48:46.444Z,95.89
2024-02-24T00:51:14.383Z,96.29
2024-02-24T00:53:42.256Z,96.18
2024-02-24T00:56:10.095Z,96.32
2024-02-24T00:58:38.208Z,96.06
2024-02-24T01:01:07.483Z,96.22
2024-02-24T01:03:35.369Z,95.95
2024-02-24T01:06:04.738Z,96.02
2024-02-24T01:08:32.756Z,96.53
2024-02-24T01:11:00.563Z,96.52
2024-02-24T01:13:28.347Z,96.76
2024-02-24T01:15:56.092Z,96.95
2024-02-24T01:18:24.884Z,97.70
2024-02-24T01:20:53.329Z,97.02
2024-02-24T01:23:23.872Z,96.37
2024-02-24T01:25:51.551Z,95.12
2024-02-24T01:28:19.362Z,95.12
2024-02-24T01:30:46.926Z,93.60
2024-02-24T01:33:14.839Z,93.49
2024-02-24T01:35:42.627Z,93.48
2024-02-24T01:38:10.954Z,93.49
2024-02-24T01:40:39.881Z,93.29
2024-02-24T01:43:25.660Z,93.44
2024-02-24T01:45:55.470Z,93.40
2024-02-24T01:48:23.091Z,92.63
2024-02-24T01:50:51.757Z,92.14
2024-02-24T01:53:20.665Z,91.70
2024-02-24T01:55:50.497Z,91.88
2024-02-24T01:58:19.731Z,91.63
2024-02-24T02:00:47.796Z,91.74
2024-02-24T02:03:15.686Z,91.90
2024-02-24T02:05:43.709Z,92.67
2024-02-24T02:08:11.445Z,91.37
2024-02-24T02:10:46.429Z,89.26
2024-02-24T02:13:15.432Z,88.27
2024-02-24T02:15:43.252Z,87.82
2024-02-24T02:18:11.268Z,87.77
2024-02-24T02:20:39.016Z,87.48
2024-02-24T02:23:08.135Z,87.01
2024-02-24T02:25:35.975Z,86.98
2024-02-24T02:28:03.671Z,86.71
2024-02-24T02:30:31.261Z,86.06
2024-02-24T02:32:59.081Z,86.51
2024-02-24T02:35:27.071Z,86.06
2024-02-24T02:37:54.726Z,86.25
2024-02-24T02:40:23.618Z,86.55
2024-02-24T02:42:51.140Z,86.01
2024-02-24T02:45:18.806Z,85.46
2024-02-24T02:47:46.474Z,84.75
2024-02-24T02:50:14.238Z,84.97
2024-02-24T02:52:41.949Z,85.00
2024-02-24T02:55:10.369Z,85.22
2024-02-24T02:57:39.364Z,85.31
2024-02-24T03:00:08.318Z,85.06
2024-02-24T03:02:36.159Z,84.16
2024-02-24T03:05:03.956Z,83.21
2024-02-24T03:07:31.743Z,83.23
2024-02-24T03:09:59.542Z,82.98
2024-02-24T03:12:27.224Z,84.53
2024-02-24T03:14:56.299Z,86.51
2024-02-24T03:17:23.950Z,86.47
2024-02-24T03:19:51.561Z,86.79
2024-02-24T03:22:19.174Z,86.82
2024-02-24T03:24:46.747Z,87.34
2024-02-24T03:27:14.920Z,87.19
2024-02-24T03:29:42.689Z,87.46
2024-02-24T03:32:11.815Z,86.55
2024-02-24T03:34:39.494Z,86.87
2024-02-24T03:37:07.324Z,86.54
2024-02-24T03:39:33.943Z,86.15
2024-02-24T03:42:01.629Z,85.93
2024-02-24T03:44:29.391Z,85.30
2024-02-24T03:46:57.050Z,85.86
2024-02-24T03:49:26.121Z,85.25
2024-02-24T03:51:53.996Z,85.56
2024-02-24T03:54:22.502Z,86.14
2024-02-24T03:56:51.354Z,86.28
2024-02-24T03:59:19.274Z,86.50
2024-02-24T04:01:47.130Z,87.01
2024-02-24T04:04:15.045Z,86.78
2024-02-24T04:06:45.768Z,87.26
2024-02-24T04:09:14.195Z,87.40
2024-02-24T04:11:42.075Z,87.34
2024-02-24T04:14:10.255Z,88.83
2024-02-24T04:16:37.880Z,90.20
2024-02-24T04:19:05.605Z,90.59
2024-02-24T04:21:33.325Z,90.18
2024-02-24T04:24:02.207Z,90.76
2024-02-24T04:26:29.861Z,91.17
2024-02-24T04:28:57.518Z,91.51
2024-02-24T04:31:25.165Z,92.57
2024-02-24T04:33:52.952Z,93.64
2024-02-24T04:36:20.694Z,94.57
2024-02-24T04:38:48.799Z,94.98
2024-02-24T04:41:17.804Z,95.39
2024-02-24T04:43:45.374Z,94.89
2024-02-24T04:46:12.996Z,94.62
2024-02-24T04:48:40.942Z,94.96
2024-02-24T04:51:08.733Z,96.64
2024-02-24T04:53:36.386Z,97.32
2024-02-24T04:56:04.347Z,97.86
2024-02-24T04:58:33.456Z,98.90
2024-02-24T05:01:01.171Z,99.88
2024-02-24T05:03:28.875Z,100.00
2024-02-24T05:05:56.575Z,100.00
2024-02-24T05:08:24.394Z,100.00
2024-02-24T05:10:52.201Z,100.00
2024-02-24T05:13:19.839Z,100.00
2024-02-24T05:15:48.784Z,100.00
2024-02-24T05:18:16.618Z,100.00
2024-02-24T05:20:44.488Z,100.00
2024-02-24T05:23:12.137Z,100.00
2024-02-24T05:25:39.752Z,100.00
2024-02-24T05:28:07.579Z,100.00
2024-02-24T05:30:35.290Z,100.00
2024-02-24T05:33:04.639Z,100.00
2024-02-24T05:35:32.463Z,100.00
2024-02-24T05:38:00.244Z,100.00
2024-02-24T05:40:28.465Z,100.00
2024-02-24T05:42:56.252Z,100.00
2024-02-24T05:45:23.885Z,100.00
2024-02-24T05:47:51.737Z,100.00
2024-02-24T05:50:21.119Z,100.00
2024-02-24T05:52:48.900Z,100.00
2024-02-24T05:55:16.525Z,100.00
2024-02-24T05:57:46.039Z,100.00
2024-02-24T06:00:15.313Z,100.00
2024-02-24T06:02:43.007Z,100.00
2024-02-24T06:05:10.741Z,100.00
2024-02-24T06:07:40.564Z,100.00
2024-02-24T06:10:09.651Z,100.00
2024-02-24T06:12:37.216Z,100.00
2024-02-24T06:15:05.431Z,100.00
2024-02-24T06:17:34.087Z,100.00
2024-02-24T06:20:01.767Z,100.00
2024-02-24T06:22:29.574Z,100.00
2024-02-24T06:24:58.676Z,100.00
2024-02-24T06:27:26.226Z,100.00
2024-02-24T06:29:53.875Z,100.00
2024-02-24T06:32:21.642Z,98.17
2024-02-24T06:34:49.296Z,97.10
2024-02-24T06:37:16.989Z,96.76
2024-02-24T06:39:44.622Z,96.37
2024-02-24T06:42:13.742Z,95.98
2024-02-24T06:44:42.699Z,95.52
2024-02-24T06:47:20.600Z,94.97
2024-02-24T06:49:53.065Z,94.66
2024-02-24T06:52:21.123Z,94.06
2024-02-24T06:54:48.843Z,94.73
2024-02-24T06:57:17.875Z,94.50
2024-02-24T06:59:46.417Z,94.99
2024-02-24T07:02:14.135Z,94.61
2024-02-24T07:04:42.873Z,94.20
2024-02-24T07:07:10.673Z,94.29
2024-02-24T07:09:38.468Z,93.83
2024-02-24T07:12:07.740Z,93.47
2024-02-24T07:14:37.272Z,92.56
2024-02-24T07:17:05.385Z,91.08
2024-02-24T07:19:33.084Z,89.81
2024-02-24T07:22:00.812Z,89.38
2024-02-24T07:24:28.647Z,89.82
2024-02-24T07:26:56.366Z,90.73
2024-02-24T07:29:24.104Z,92.03
2024-02-24T07:31:53.895Z,91.19
2024-02-24T07:34:21.743Z,90.55
2024-02-24T07:36:49.543Z,90.44
2024-02-24T07:39:17.216Z,91.29
2024-02-24T07:41:45.068Z,91.24
2024-02-24T07:44:12.889Z,90.92
2024-02-24T07:46:40.764Z,91.26
2024-02-24T07:49:10.081Z,92.61
2024-02-24T07:51:40.376Z,94.32
2024-02-24T07:54:08.101Z,94.83
2024-02-24T07:56:35.784Z,95.40
2024-02-24T07:59:03.679Z,96.78
2024-02-24T08:01:31.915Z,97.46
2024-02-24T08:03:59.605Z,99.89
2024-02-24T08:06:29.088Z,100.00
2024-02-24T08:08:57.246Z,100.00
2024-02-24T08:11:25.461Z,100.00
2024-02-24T08:13:53.149Z,100.00
2024-02-24T08:16:23.668Z,100.00
2024-02-24T08:18:51.394Z,100.00
2024-02-24T08:21:19.118Z,100.00
2024-02-24T08:23:48.322Z,100.00
2024-02-24T08:26:16.078Z,100.00
2024-02-24T08:28:44.004Z,98.61
2024-02-24T08:31:11.829Z,95.84
2024-02-24T08:33:43.530Z,95.07
2024-02-24T08:36:16.028Z,93.21
2024-02-24T08:38:43.863Z,90.56
2024-02-24T08:41:12.942Z,90.80
2024-02-24T08:43:40.675Z,90.31
2024-02-24T08:46:10.466Z,92.32
2024-02-24T08:48:39.844Z,93.86
2024-02-24T08:51:07.900Z,95.74
2024-02-24T08:53:35.605Z,97.74
2024-02-24T08:56:03.264Z,99.54
2024-02-24T08:58:32.229Z,100.00
2024-02-24T09:00:59.836Z,100.00
2024-02-24T09:03:27.509Z,100.00
2024-02-24T09:05:55.250Z,100.00
2024-02-24T09:08:23.069Z,100.00
2024-02-24T09:10:53.724Z,99.65
2024-02-24T09:13:22.073Z,98.88
2024-02-24T09:15:51.080Z,98.50
2024-02-24T09:18:19.117Z,99.04
2024-02-24T09:20:48.063Z,98.53
2024-02-24T09:23:15.967Z,98.02
2024-02-24T09:25:43.726Z,97.20
2024-02-24T09:28:12.128Z,96.21
2024-02-24T09:30:39.794Z,95.46
2024-02-24T09:33:09.173Z,95.74
2024-02-24T09:35:37.062Z,94.94
2024-02-24T09:38:05.044Z,93.75
2024-02-24T09:40:32.701Z,92.25
2024-02-24T09:43:05.395Z,92.50
2024-02-24T09:45:36.550Z,91.73
2024-02-24T09:48:05.338Z,88.99
2024-02-24T09:50:34.883Z,88.97
2024-02-24T09:53:02.706Z,87.53
2024-02-24T09:55:30.506Z,85.77
2024-02-24T09:57:59.160Z,84.73
2024-02-24T10:00:27.013Z,84.01
2024-02-24T10:02:54.979Z,83.69
2024-02-24T10:05:23.191Z,83.75
2024-02-24T10:07:52.383Z,83.30
2024-02-24T10:10:20.333Z,81.46
2024-02-24T10:12:58.514Z,80.96
2024-02-24T10:15:26.982Z,79.02
2024-02-24T10:17:59.429Z,77.47
2024-02-24T10:20:27.451Z,75.35
2024-02-24T10:22:57.078Z,74.34
2024-02-24T10:25:25.031Z,72.80
2024-02-24T10:27:53.733Z,73.81
2024-02-24T10:30:24.288Z,74.68
2024-02-24T10:32:54.609Z,75.54
2024-02-24T10:35:23.209Z,74.36
2024-02-24T10:38:10.878Z,73.09
2024-02-24T10:40:46.968Z,71.39
2024-02-24T10:43:15.158Z,71.99
2024-02-24T10:45:43.038Z,72.37
2024-02-24T10:48:10.850Z,72.43
2024-02-24T10:50:40.551Z,73.15
2024-02-24T10:53:11.205Z,73.47
2024-02-24T10:55:41.070Z,70.31
2024-02-24T10:58:11.467Z,68.41
2024-02-24T11:00:46.427Z,66.92
2024-02-24T11:03:15.478Z,66.74
2024-02-24T11:05:48.023Z,66.90
2024-02-24T11:08:38.992Z,65.93
2024-02-24T11:11:10.153Z,66.49
2024-02-24T11:13:52.317Z,66.08
2024-02-24T11:16:29.021Z,65.66
2024-02-24T11:18:57.323Z,65.07
2024-02-24T11:21:58.505Z,64.70
2024-02-24T11:24:32.074Z,65.16
2024-02-24T11:26:59.896Z,66.56
2024-02-24T11:29:29.417Z,65.53
2024-02-24T11:32:14.073Z,65.83
2024-02-24T11:34:45.311Z,63.79
2024-02-24T11:37:17.252Z,62.91
2024-02-24T11:39:46.333Z,64.02
2024-02-24T11:42:14.807Z,64.15
2024-02-24T11:44:47.782Z,64.62
2024-02-24T11:47:18.663Z,62.07
2024-02-24T11:49:48.466Z,61.09
2024-02-24T11:52:17.490Z,61.38
2024-02-24T11:54:46.238Z,61.72
2024-02-24T11:57:14.736Z,61.41
2024-02-24T11:59:43.107Z,61.28
2024-02-24T12:02:16.179Z,61.28
2024-02-24T12:04:44.042Z,61.69
2024-02-24T12:07:12.886Z,61.49
2024-02-24T12:09:41.284Z,61.49
2024-02-24T12:12:09.632Z,61.44
2024-02-24T12:14:37.702Z,61.44
2024-02-24T12:17:05.862Z,61.21
2024-02-24T12:19:38.592Z,60.96
2024-02-24T12:22:09.804Z,60.97
2024-02-24T12:24:39.035Z,59.14
2024-02-24T12:27:10.113Z,58.96
2024-02-24T12:29:38.519Z,57.13
2024-02-24T12:32:07.385Z,57.20
2024-02-24T12:34:36.586Z,57.61
2024-02-24T12:37:05.346Z,57.82
2024-02-24T12:39:35.533Z,57.04
2024-02-24T12:42:03.261Z,54.84
2024-02-24T12:44:31.860Z,55.22
2024-02-24T12:47:00.257Z,55.10
2024-02-24T12:49:28.002Z,55.59
2024-02-24T12:51:56.976Z,55.93
2024-02-24T12:54:24.775Z,56.35
2024-02-24T12:56:52.506Z,55.28
2024-02-24T12:59:22.474Z,55.31
2024-02-24T13:01:50.377Z,55.39
2024-02-24T13:04:18.285Z,55.42
2024-02-24T13:06:46.094Z,55.68
2024-02-24T13:09:15.933Z,54.56
2024-02-24T13:11:43.729Z,55.29
2024-02-24T13:14:11.532Z,55.16
2024-02-24T13:16:39.365Z,55.55
2024-02-24T13:19:07.259Z,54.77
2024-02-24T13:21:35.094Z,54.34
2024-02-24T13:24:03.047Z,54.32
2024-02-24T13:26:32.344Z,54.47
2024-02-24T13:29:00.083Z,54.58
2024-02-24T13:31:30.029Z,54.69
2024-02-24T13:33:58.510Z,54.37
2024-02-24T13:36:27.996Z,55.56
2024-02-24T13:38:56.690Z,55.97
2024-02-24T13:41:24.784Z,55.93
2024-02-24T13:43:54.280Z,56.40
2024-02-24T13:46:22.156Z,55.98
2024-02-24T13:48:50.442Z,55.30
2024-02-24T13:51:18.306Z,55.54
2024-02-24T13:53:46.364Z,56.84
2024-02-24T13:56:14.784Z,57.00
2024-02-24T13:58:42.973Z,57.18
2024-02-24T14:01:12.194Z,57.32
2024-02-24T14:03:39.947Z,58.41
2024-02-24T14:06:08.330Z,58.31
2024-02-24T14:08:36.300Z,57.96
2024-02-24T14:11:04.311Z,58.53
2024-02-24T14:13:33.289Z,59.53
2024-02-24T14:16:01.128Z,61.74
2024-02-24T14:18:30.455Z,63.61
2024-02-24T14:20:59.160Z,64.10
2024-02-24T14:23:27.662Z,66.27
2024-02-24T14:25:55.455Z,65.69
2024-02-24T14:28:23.419Z,65.99
2024-02-24T14:30:53.885Z,65.61
2024-02-24T14:33:23.696Z,65.88
2024-02-24T14:35:53.041Z,65.30
2024-02-24T14:38:20.790Z,65.99
2024-02-24T14:40:50.294Z,64.84
2024-02-24T14:43:18.108Z,63.72
2024-02-24T14:45:45.808Z,64.13
2024-02-24T14:48:13.762Z,65.43
2024-02-24T14:50:41.792Z,65.06
2024-02-24T14:53:10.974Z,64.38
2024-02-24T14:55:39.008Z,62.37
2024-02-24T14:58:06.689Z,62.06
2024-02-24T15:00:34.563Z,60.63
2024-02-24T15:03:09.647Z,59.87
2024-02-24T15:05:38.952Z,60.52
2024-02-24T15:08:07.584Z,60.77
2024-02-24T15:10:36.892Z,59.40
2024-02-24T15:13:04.918Z,59.79
2024-02-24T15:15:32.675Z,60.25
2024-02-24T15:18:04.606Z,59.49
2024-02-24T15:20:33.100Z,58.44
2024-02-24T15:23:01.127Z,58.51
2024-02-24T15:25:29.528Z,57.97
2024-02-24T15:27:59.175Z,58.35
2024-02-24T15:30:27.215Z,59.67
2024-02-24T15:32:58.775Z,61.09
2024-02-24T15:35:27.515Z,60.94
2024-02-24T15:37:55.251Z,62.32
2024-02-24T15:40:22.830Z,62.69
2024-02-24T15:42:50.726Z,63.90
2024-02-24T15:45:21.962Z,64.85
2024-02-24T15:47:49.691Z,64.18
2024-02-24T15:50:19.535Z,63.06
2024-02-24T15:52:47.632Z,63.52
2024-02-24T15:55:15.755Z,61.67
2024-02-24T15:57:47.122Z,61.83
2024-02-24T16:00:15.458Z,62.99
2024-02-24T16:02:45.615Z,63.63
2024-02-24T16:05:13.759Z,62.92
2024-02-24T16:07:42.565Z,63.73
2024-02-24T16:10:10.990Z,62.83
2024-02-24T16:12:38.632Z,62.35
2024-02-24T16:15:07.443Z,63.02
2024-02-24T16:17:36.173Z,62.99
2024-02-24T16:20:06.025Z,62.83
2024-02-24T16:22:33.817Z,62.76
2024-02-24T16:25:01.477Z,62.74
2024-02-24T16:27:29.127Z,62.76
2024-02-24T16:29:56.915Z,64.67
2024-02-24T16:32:24.944Z,65.60
2024-02-24T16:34:53.319Z,65.73
2024-02-24T16:37:23.303Z,66.83
2024-02-24T16:39:51.166Z,66.06
2024-02-24T16:42:19.322Z,65.85
2024-02-24T16:44:47.976Z,67.49
2024-02-24T16:47:16.015Z,67.70
2024-02-24T16:49:43.897Z,68.47
2024-02-24T16:52:11.893Z,68.78
2024-02-24T16:54:41.134Z,71.46
2024-02-24T16:57:10.235Z,71.64
2024-02-24T16:59:39.536Z,68.79
2024-02-24T17:02:07.781Z,72.62
2024-02-24T17:04:37.508Z,68.55
2024-02-24T17:07:05.872Z,71.82
2024-02-24T17:09:33.761Z,69.71
2024-02-24T17:12:03.936Z,71.53
2024-02-24T17:14:32.110Z,68.10
2024-02-24T17:16:59.993Z,68.34
2024-02-24T17:19:27.967Z,67.09
2024-02-24T17:21:55.845Z,66.79
2024-02-24T17:24:23.803Z,65.06
2024-02-24T17:26:55.792Z,66.10
2024-02-24T17:29:25.255Z,65.64
2024-02-24T17:31:53.122Z,66.08
2024-02-24T17:34:21.122Z,67.83
2024-02-24T17:36:50.013Z,67.46
2024-02-24T17:39:17.916Z,67.69
2024-02-24T17:41:45.764Z,68.91
2024-02-24T17:44:13.708Z,69.31
2024-02-24T17:46:43.061Z,71.47
2024-02-24T17:49:10.906Z,70.65
2024-02-24T17:51:39.049Z,72.23
2024-02-24T17:54:06.957Z,71.60
2024-02-24T17:56:36.118Z,73.63
2024-02-24T17:59:04.065Z,82.91
2024-02-24T18:01:31.935Z,81.77
2024-02-24T18:04:01.234Z,78.21
2024-02-24T18:06:29.368Z,79.10
2024-02-24T18:08:57.787Z,78.80
2024-02-24T18:11:26.245Z,76.57
2024-02-24T18:13:54.180Z,76.78
2024-02-24T18:16:22.091Z,76.73
2024-02-24T18:18:49.960Z,74.71
2024-02-24T18:21:20.412Z,74.99
2024-02-24T18:23:48.291Z,75.42
2024-02-24T18:26:16.134Z,80.64
2024-02-24T18:28:44.230Z,79.80
2024-02-24T18:31:12.231Z,78.54
2024-02-24T18:33:40.079Z,75.24
2024-02-24T18:36:08.814Z,76.44
2024-02-24T18:38:37.756Z,74.74
2024-02-24T18:41:06.187Z,75.35
2024-02-24T18:43:34.728Z,75.00
2024-02-24T18:46:02.668Z,74.21
2024-02-24T18:48:30.626Z,76.59
2024-02-24T18:50:59.462Z,79.01
2024-02-24T18:53:32.391Z,79.69
2024-02-24T18:56:02.088Z,81.15
2024-02-24T18:58:31.209Z,81.59
2024-02-24T19:01:01.610Z,82.64
2024-02-24T19:03:29.828Z,83.70
2024-02-24T19:05:58.308Z,84.91
2024-02-24T19:08:26.152Z,85.90
2024-02-24T19:10:53.897Z,87.51
2024-02-24T19:13:22.971Z,89.45
2024-02-24T19:15:54.503Z,91.19
2024-02-24T19:18:22.406Z,94.17
2024-02-24T19:20:50.072Z,96.40
2024-02-24T19:23:19.168Z,96.54
2024-02-24T19:25:47.043Z,95.16
2024-02-24T19:28:14.937Z,94.81
2024-02-24T19:30:44.129Z,95.32
2024-02-24T19:33:12.147Z,95.54
2024-02-24T19:35:42.380Z,96.23
2024-02-24T19:38:11.934Z,96.66
2024-02-24T19:40:41.646Z,96.59
2024-02-24T19:43:10.489Z,97.17
2024-02-24T19:45:38.414Z,97.85
2024-02-24T19:48:08.965Z,98.12
2024-02-24T19:50:36.748Z,98.58
2024-02-24T19:53:04.624Z,98.23
2024-02-24T19:55:32.359Z,98.37
2024-02-24T19:58:00.543Z,97.79
2024-02-24T20:00:29.841Z,97.38
2024-02-24T20:02:57.853Z,97.63
2024-02-24T20:05:27.160Z,96.76
2024-02-24T20:07:57.788Z,95.79
2024-02-24T20:10:27.445Z,95.92
2024-02-24T20:12:55.236Z,95.28
2024-02-24T20:15:23.011Z,95.12
2024-02-24T20:17:50.804Z,94.92
2024-02-24T20:20:18.529Z,94.93
2024-02-24T20:22:47.589Z,94.86
2024-02-24T20:25:15.547Z,94.36
2024-02-24T20:27:43.383Z,94.28
2024-02-24T20:30:14.849Z,94.88
2024-02-24T20:32:42.572Z,94.78
2024-02-24T20:35:11.178Z,95.30
2024-02-24T20:37:38.930Z,96.26
2024-02-24T20:40:09.657Z,95.43
2024-02-24T20:42:37.467Z,95.78
2024-02-24T20:45:06.223Z,96.02
2024-02-24T20:47:33.978Z,95.17
2024-02-24T20:50:01.691Z,96.60
2024-02-24T20:52:29.480Z,96.77
2024-02-24T20:54:57.449Z,98.01
2024-02-24T20:57:26.407Z,98.45
2024-02-24T20:59:54.245Z,99.41
2024-02-24T21:02:22.041Z,99.89
2024-02-24T21:04:49.616Z,100.00
2024-02-24T21:07:17.286Z,100.00
2024-02-24T21:09:45.182Z,100.00
2024-02-24T21:12:13.469Z,100.00
2024-02-24T21:14:42.670Z,100.00
2024-02-24T21:17:10.386Z,100.00
2024-02-24T21:19:38.029Z,100.00
2024-02-24T21:22:07.940Z,100.00
2024-02-24T21:24:36.771Z,100.00
2024-02-24T21:27:04.886Z,100.00
2024-02-24T21:29:32.831Z,100.00
2024-02-24T21:32:02.215Z,100.00
2024-02-24T21:34:31.285Z,100.00
2024-02-24T21:36:59.060Z,100.00
2024-02-24T21:39:27.344Z,100.00
2024-02-24T21:41:55.590Z,100.00
2024-02-24T21:44:23.457Z,100.00
2024-02-24T21:46:51.167Z,100.00
2024-02-24T21:49:20.485Z,100.00
2024-02-24T21:51:48.314Z,100.00
2024-02-24T21:54:16.408Z,100.00
2024-02-24T21:56:47.587Z,100.00
2024-02-24T21:59:15.245Z,100.00
2024-02-24T22:01:43.064Z,100.00
2024-02-24T22:04:10.733Z,100.00
2024-02-24T22:06:40.269Z,100.00
2024-02-24T22:09:08.887Z,100.00
2024-02-24T22:11:39.751Z,100.00
2024-02-24T22:14:07.568Z,100.00
2024-02-24T22:16:35.380Z,100.00
2024-02-24T22:19:03.499Z,100.00
2024-02-24T22:21:33.518Z,100.00
2024-02-24T22:24:02.674Z,100.00
2024-02-24T22:26:30.663Z,100.00
2024-02-24T22:28:58.402Z,100.00
2024-02-24T22:31:26.343Z,100.00
2024-02-24T22:33:54.215Z,100.00
2024-02-24T22:36:23.752Z,100.00
2024-02-24T22:38:53.085Z,100.00
2024-02-24T22:41:23.678Z,100.00
2024-02-24T22:43:52.336Z,100.00
2024-02-24T22:46:21.376Z,100.00
2024-02-24T22:48:49.490Z,100.00
2024-02-24T22:51:19.257Z,100.00
2024-02-24T22:53:46.997Z,100.00
2024-02-24T22:56:14.764Z,100.00
2024-02-24T22:58:45.858Z,100.00
2024-02-24T23:01:13.738Z,100.00
2024-02-24T23:03:41.336Z,100.00
2024-02-24T23:06:09.236Z,100.00
2024-02-24T23:08:37.286Z,100.00
2024-02-24T23:11:05.389Z,100.00
2024-02-24T23:13:33.549Z,100.00
2024-02-24T23:16:02.853Z,100.00
2024-02-24T23:18:31.011Z,100.00
2024-02-24T23:20:58.934Z,100.00
2024-02-24T23:23:26.990Z,100.00
2024-02-24T23:25:54.944Z,100.00
2024-02-24T23:28:22.837Z,100.00
2024-02-24T23:30:50.587Z,100.00
2024-02-24T23:33:20.165Z,100.00
2024-02-24T23:35:47.884Z,100.00
2024-02-24T23:38:15.598Z,100.00
2024-02-24T23:40:45.441Z,100.00
2024-02-24T23:43:13.323Z,100.00
2024-02-24T23:45:44.343Z,100.00
2024-02-24T23:48:12.329Z,100.00
2024-02-24T23:50:41.736Z,100.00
2024-02-24T23:53:09.389Z,100.00
2024-02-24T23:55:37.097Z,100.00
2024-02-24T23:58:06.624Z,100.00
